Time;durP1;ratioP1;P1;durP2;ratioP2;P2;SDS_P1;SDS_P2;PMS_P1;PMS_P2;Temp;Humidity;BMP_temperature;BMP_pressure;BME280_temperature;BME280_humidity;BME280_pressure;Samples;Min_cycle;Max_cycle;Signal;HPM_P1;HPM_P2
2022/04/15 00:01:32;;;;;;;15.73;8.90;;;10.40;68.90;;;;;;5073026;28;20212;-62
2022/04/15 00:03:59;;;;;;;14.70;8.63;;;10.30;1.00;;;;;;5073098;28;20604;-61
2022/04/15 00:06:26;;;;;;;12.77;8.53;;;10.30;9.10;;;;;;5072690;28;20206;-62
2022/04/15 00:08:53;;;;;;;12.70;8.57;;;10.20;99.90;;;;;;5072416;28;20230;-61
2022/04/15 00:11:20;;;;;;;11.60;8.70;;;10.20;99.90;;;;;;5072817;28;20207;-61
2022/04/15 00:13:49;;;;;;;14.63;8.10;;;10.20;99.90;;;;;;5073021;28;20287;-62
2022/04/15 00:16:16;;;;;;;16.40;9.17;;;10.10;99.90;;;;;;5072848;28;20670;-62
2022/04/15 00:18:43;;;;;;;16.17;8.90;;;10.10;1.00;;;;;;5075761;28;20227;-62
2022/04/15 00:21:10;;;;;;;15.17;9.33;;;10.00;1.00;;;;;;5074055;28;20632;-62
2022/04/15 00:23:37;;;;;;;17.30;10.10;;;9.90;1.00;;;;;;5076463;28;20726;-62
2022/04/15 00:26:04;;;;;;;18.20;12.13;;;9.90;1.00;;;;;;5072716;28;20277;-61
2022/04/15 00:28:31;;;;;;;15.30;9.67;;;9.90;1.00;;;;;;5072420;28;20228;-62
2022/04/15 00:31:00;;;;;;;14.10;9.27;;;9.80;1.00;;;;;;5072514;28;20301;-62
2022/04/15 00:33:27;;;;;;;13.87;8.93;;;9.80;1.00;;;;;;5072536;28;20222;-61
2022/04/15 00:35:53;;;;;;;16.60;8.53;;;9.80;1.00;;;;;;5072088;28;20249;-60
2022/04/15 00:38:20;;;;;;;12.60;8.43;;;9.70;1.00;;;;;;5072160;28;20279;-62
2022/04/15 00:40:47;;;;;;;11.23;8.57;;;9.60;1.00;;;;;;5072175;28;20676;-61
2022/04/15 00:43:13;;;;;;;16.93;9.70;;;9.60;1.00;;;;;;5071975;28;20202;-62
2022/04/15 00:45:40;;;;;;;17.37;9.87;;;9.50;77.90;;;;;;5072356;28;20213;-61
2022/04/15 00:48:11;;;;;;;16.17;9.80;;;9.50;78.00;;;;;;5071545;28;20226;-62
2022/04/15 00:50:38;;;;;;;11.73;8.80;;;9.50;99.90;;;;;;5072379;28;20275;-62
2022/04/15 00:53:10;;;;;;;15.13;9.50;;;9.40;1.00;;;;;;5071927;28;20254;-61
2022/04/15 00:55:39;;;;;;;17.87;9.33;;;9.50;1.00;;;;;;5071916;28;20201;-62
2022/04/15 00:58:07;;;;;;;14.53;9.10;;;9.50;99.90;;;;;;5071929;28;20686;-62
2022/04/15 01:00:35;;;;;;;16.60;10.17;;;9.50;1.00;;;;;;5072102;28;20264;-62
2022/04/15 01:03:04;;;;;;;14.83;9.77;;;9.50;99.90;;;;;;5072124;28;20793;-62
2022/04/15 01:05:32;;;;;;;15.17;9.50;;;9.50;99.90;;;;;;5071793;28;20208;-61
2022/04/15 01:08:02;;;;;;;14.67;9.50;;;9.50;99.90;;;;;;5071431;28;20223;-62
2022/04/15 01:10:28;;;;;;;15.27;10.07;;;9.50;99.90;;;;;;5071288;28;20263;-61
2022/04/15 01:12:57;;;;;;;16.80;10.57;;;9.50;99.90;;;;;;5071966;28;20222;-62
2022/04/15 01:15:26;;;;;;;17.97;10.60;;;9.50;99.90;;;;;;5071644;28;20664;-62
2022/04/15 01:17:53;;;;;;;16.33;9.67;;;9.50;99.90;;;;;;5071443;28;20225;-62
2022/04/15 01:20:21;;;;;;;19.00;10.37;;;9.50;1.00;;;;;;5071811;28;20259;-62
2022/04/15 01:22:57;;;;;;;14.87;10.10;;;9.50;99.90;;;;;;5071386;28;20208;-62
2022/04/15 01:25:23;;;;;;;15.00;10.13;;;9.50;99.90;;;;;;5071991;28;20216;-62
2022/04/15 01:27:50;;;;;;;16.33;10.03;;;9.50;99.90;;;;;;5071314;28;20230;-62
2022/04/15 01:30:24;;;;;;;13.53;9.43;;;9.50;99.90;;;;;;5071688;28;20206;-61
2022/04/15 01:32:51;;;;;;;15.97;9.30;;;9.40;99.90;;;;;;5071005;28;20220;-63
2022/04/15 01:35:20;;;;;;;13.90;9.07;;;9.30;99.90;;;;;;5071406;28;20981;-62
2022/04/15 01:37:49;;;;;;;16.13;10.13;;;9.30;99.90;;;;;;5070895;28;20720;-62
2022/04/15 01:40:18;;;;;;;18.43;9.63;;;9.20;99.90;;;;;;5071609;28;20286;-62
2022/04/15 01:42:46;;;;;;;13.57;9.93;;;9.20;99.90;;;;;;5071807;28;20622;-62
2022/04/15 01:45:13;;;;;;;14.37;9.33;;;9.20;99.90;;;;;;5071878;28;20205;-62
2022/04/15 01:47:39;;;;;;;15.07;9.93;;;9.20;99.90;;;;;;5070784;28;20279;-61
2022/04/15 01:50:08;;;;;;;16.07;9.20;;;9.10;99.90;;;;;;5071440;28;20209;-62
2022/04/15 01:52:35;;;;;;;16.73;10.83;;;9.10;99.90;;;;;;5071555;28;20251;-62
2022/04/15 01:55:02;;;;;;;16.23;10.73;;;9.00;99.90;;;;;;5071309;28;20215;-61
2022/04/15 01:57:30;;;;;;;15.80;10.37;;;9.00;1.00;;;;;;5070940;28;20644;-62
2022/04/15 01:59:57;;;;;;;16.30;11.27;;;8.90;1.00;;;;;;5071270;28;20552;-61
2022/04/15 02:02:23;;;;;;;16.60;9.80;;;8.90;1.00;;;;;;5070913;28;20562;-61
2022/04/15 02:04:51;;;;;;;17.97;10.40;;;8.80;1.00;;;;;;5071192;28;20675;-62
2022/04/15 02:07:17;;;;;;;14.70;9.77;;;8.80;1.00;;;;;;5070813;28;20248;-62
2022/04/15 02:09:44;;;;;;;13.83;9.67;;;8.80;1.00;;;;;;5071726;28;20278;-61
2022/04/15 02:12:11;;;;;;;20.77;10.43;;;8.70;1.00;;;;;;5071168;28;20693;-61
2022/04/15 02:14:39;;;;;;;15.87;10.30;;;8.70;1.00;;;;;;5071221;28;20229;-61
2022/04/15 02:17:05;;;;;;;20.53;11.37;;;8.70;1.00;;;;;;5070782;28;20209;-61
2022/04/15 02:19:32;;;;;;;19.03;10.93;;;8.60;1.00;;;;;;5071483;28;20352;-62
2022/04/15 02:21:59;;;;;;;19.73;11.13;;;8.60;1.00;;;;;;5072899;28;20266;-62
2022/04/15 02:24:25;;;;;;;16.83;10.53;;;8.60;1.00;;;;;;5074547;28;20650;-62
2022/04/15 02:26:52;;;;;;;20.07;10.83;;;8.60;1.00;;;;;;5074394;28;20266;-61
2022/04/15 02:29:19;;;;;;;21.57;12.17;;;8.50;1.00;;;;;;5074286;28;20282;-62
2022/04/15 02:31:47;;;;;;;18.87;11.13;;;8.50;1.00;;;;;;5074735;28;20277;-62
2022/04/15 02:34:14;;;;;;;20.77;10.73;;;8.50;1.00;;;;;;5074398;28;20267;-62
2022/04/15 02:36:40;;;;;;;15.73;11.97;;;8.50;1.00;;;;;;5074278;28;20201;-61
2022/04/15 02:39:10;;;;;;;15.93;10.83;;;8.40;1.00;;;;;;5074313;28;20229;-62
2022/04/15 02:41:37;;;;;;;18.33;11.57;;;8.40;1.00;;;;;;5074519;28;20205;-61
2022/04/15 02:44:04;;;;;;;18.97;10.70;;;8.30;1.00;;;;;;5074445;28;20254;-62
2022/04/15 02:46:30;;;;;;;16.93;10.57;;;8.30;1.00;;;;;;5074067;28;20209;-62
2022/04/15 02:48:58;;;;;;;18.80;11.30;;;8.30;1.00;;;;;;5074277;28;20274;-62
2022/04/15 02:51:25;;;;;;;17.83;11.23;;;8.20;1.00;;;;;;5074191;28;20268;-62
2022/04/15 02:53:52;;;;;;;19.27;11.50;;;8.20;1.00;;;;;;5073758;28;20255;-62
2022/04/15 02:56:18;;;;;;;15.20;10.50;;;8.20;1.00;;;;;;5073557;28;20204;-62
2022/04/15 02:58:45;;;;;;;19.73;11.33;;;8.10;1.00;;;;;;5074057;28;20229;-62
2022/04/15 03:01:12;;;;;;;19.50;10.90;;;8.10;1.00;;;;;;5074120;28;20209;-62
2022/04/15 03:03:38;;;;;;;17.50;11.00;;;8.10;1.00;;;;;;5073818;28;20621;-62
2022/04/15 03:06:07;;;;;;;17.27;11.30;;;8.00;1.00;;;;;;5073829;28;20209;-62
2022/04/15 03:08:34;;;;;;;22.60;12.10;;;8.00;1.00;;;;;;5073745;28;20715;-62
2022/04/15 03:11:01;;;;;;;17.70;11.10;;;8.00;1.00;;;;;;5073749;28;20205;-62
2022/04/15 03:13:28;;;;;;;20.90;12.10;;;8.00;1.00;;;;;;5073781;28;20228;-62
2022/04/15 03:15:55;;;;;;;18.50;11.97;;;8.00;1.00;;;;;;5073576;28;20295;-62
2022/04/15 03:18:21;;;;;;;20.00;11.97;;;8.00;1.00;;;;;;5073611;28;20229;-62
2022/04/15 03:20:48;;;;;;;17.90;11.73;;;7.90;1.00;;;;;;5074021;28;20208;-62
2022/04/15 03:23:16;;;;;;;18.93;11.23;;;7.90;2.60;;;;;;5073811;28;20289;-61
2022/04/15 03:25:42;;;;;;;22.10;12.53;;;7.90;6.30;;;;;;5073475;28;20623;-62
2022/04/15 03:28:09;;;;;;;24.57;12.53;;;7.90;9.90;;;;;;5073355;28;20251;-62
2022/04/15 03:30:36;;;;;;;23.93;14.00;;;7.90;14.80;;;;;;5073754;28;20212;-61
2022/04/15 03:33:02;;;;;;;28.67;15.17;;;7.90;19.70;;;;;;5073270;28;20201;-62
2022/04/15 03:35:30;;;;;;;24.73;13.23;;;7.90;24.70;;;;;;5073415;28;20247;-62
2022/04/15 03:37:56;;;;;;;25.30;13.43;;;7.80;27.30;;;;;;5073131;28;20237;-62
2022/04/15 03:40:24;;;;;;;22.17;12.40;;;7.80;25.70;;;;;;5074102;28;20361;-62
2022/04/15 03:42:53;;;;;;;24.43;13.33;;;7.80;25.30;;;;;;5074520;28;20652;-62
2022/04/15 03:45:22;;;;;;;18.23;12.23;;;7.70;24.60;;;;;;5073753;28;20220;-63
2022/04/15 03:47:49;;;;;;;20.47;13.27;;;7.70;23.50;;;;;;5072853;28;20221;-62
2022/04/15 03:50:17;;;;;;;20.33;12.93;;;7.70;24.60;;;;;;5073539;28;20615;-62
2022/04/15 03:52:46;;;;;;;19.57;12.97;;;7.60;25.90;;;;;;5072927;28;20266;-62
2022/04/15 03:55:14;;;;;;;20.10;12.63;;;7.60;26.10;;;;;;5073262;28;20464;-61
2022/04/15 03:57:43;;;;;;;22.93;12.90;;;7.60;25.30;;;;;;5073000;28;20224;-62
2022/04/15 04:00:12;;;;;;;24.37;12.83;;;7.50;23.70;;;;;;5073211;28;20201;-62
2022/04/15 04:02:39;;;;;;;22.73;12.97;;;7.50;23.60;;;;;;5073253;28;20201;-61
2022/04/15 04:05:08;;;;;;;25.57;12.90;;;7.50;19.40;;;;;;5072894;28;20670;-62
2022/04/15 04:07:35;;;;;;;22.70;14.57;;;7.40;18.70;;;;;;5072786;28;20677;-62
2022/04/15 04:10:01;;;;;;;22.87;13.37;;;7.40;19.30;;;;;;5072670;28;20675;-62
2022/04/15 04:12:31;;;;;;;26.33;15.13;;;7.40;19.80;;;;;;5072793;28;20235;-62
2022/04/15 04:14:59;;;;;;;24.63;14.43;;;7.40;19.40;;;;;;5072589;28;20239;-62
2022/04/15 04:17:26;;;;;;;23.40;14.00;;;7.40;22.80;;;;;;5072338;28;20258;-62
2022/04/15 04:19:52;;;;;;;25.87;13.07;;;7.40;24.60;;;;;;5072248;28;20262;-62
2022/04/15 04:22:19;;;;;;;25.60;13.50;;;7.40;27.20;;;;;;5072694;28;20385;-62
2022/04/15 04:24:46;;;;;;;22.40;13.47;;;7.40;33.20;;;;;;5072683;28;20628;-62
2022/04/15 04:27:13;;;;;;;23.77;12.77;;;7.40;39.50;;;;;;5071923;28;20237;-62
2022/04/15 04:29:39;;;;;;;23.80;14.60;;;7.30;46.00;;;;;;5072411;28;20201;-62
2022/04/15 04:32:08;;;;;;;24.13;13.83;;;7.40;58.50;;;;;;5072311;28;20208;-62
2022/04/15 04:34:35;;;;;;;23.03;13.93;;;7.30;72.60;;;;;;5072272;28;20228;-62
2022/04/15 04:37:01;;;;;;;20.60;13.37;;;7.40;86.90;;;;;;5072004;28;20209;-62
2022/04/15 04:39:29;;;;;;;23.47;13.90;;;7.40;94.90;;;;;;5072478;28;20207;-63
2022/04/15 04:41:56;;;;;;;24.63;13.93;;;7.50;99.90;;;;;;5074091;28;20571;-62
2022/04/15 04:44:23;;;;;;;26.57;13.87;;;7.50;99.90;;;;;;5072225;28;20209;-62
2022/04/15 04:46:50;;;;;;;20.23;14.13;;;7.50;99.90;;;;;;5071786;28;20212;-63
2022/04/15 04:49:19;;;;;;;23.07;13.53;;;7.50;99.90;;;;;;5072380;28;20201;-62
2022/04/15 04:51:45;;;;;;;26.17;13.20;;;7.50;99.90;;;;;;5072255;28;20254;-61
2022/04/15 04:54:12;;;;;;;19.80;12.77;;;7.50;99.90;;;;;;5071859;28;20278;-62
2022/04/15 04:56:39;;;;;;;22.53;13.23;;;7.50;99.90;;;;;;5071875;28;20209;-62
2022/04/15 04:59:06;;;;;;;22.40;12.50;;;7.50;99.90;;;;;;5071638;28;20228;-60
2022/04/15 05:01:32;;;;;;;21.57;12.93;;;7.60;99.90;;;;;;5071881;28;20208;-61
2022/04/15 05:03:59;;;;;;;22.00;13.57;;;7.50;99.90;;;;;;5071941;28;20208;-62
2022/04/15 05:06:27;;;;;;;20.57;12.00;;;7.60;99.90;;;;;;5071769;28;20207;-61
2022/04/15 05:08:54;;;;;;;26.93;15.37;;;7.50;99.90;;;;;;5071660;28;20649;-62
2022/04/15 05:11:21;;;;;;;24.33;14.17;;;7.50;99.90;;;;;;5071767;28;20213;-62
2022/04/15 05:13:50;;;;;;;30.63;14.87;;;7.40;99.90;;;;;;5056177;28;20204;-63
2022/04/15 05:16:17;;;;;;;22.30;11.77;;;7.50;99.90;;;;;;5068017;28;20208;-64
2022/04/15 05:18:44;;;;;;;28.90;14.53;;;7.50;99.90;;;;;;5071813;28;20233;-62
2022/04/15 05:21:11;;;;;;;26.43;14.13;;;7.50;99.90;;;;;;5071530;28;20290;-65
2022/04/15 05:23:39;;;;;;;27.90;14.73;;;7.50;99.90;;;;;;5071240;28;20599;-59
2022/04/15 05:26:06;;;;;;;21.83;13.57;;;7.40;99.90;;;;;;5071147;28;20203;-61
2022/04/15 05:28:35;;;;;;;21.43;13.10;;;7.30;99.90;;;;;;5070135;28;20226;-62
2022/04/15 05:31:02;;;;;;;24.37;13.83;;;7.30;99.90;;;;;;5071433;28;20628;-61
2022/04/15 05:33:29;;;;;;;22.40;13.47;;;7.20;99.90;;;;;;5070546;28;20256;-62
2022/04/15 05:35:56;;;;;;;24.63;13.77;;;7.20;99.90;;;;;;5070494;28;20277;-62
2022/04/15 05:38:22;;;;;;;23.73;13.47;;;7.20;99.90;;;;;;5070931;28;20226;-61
2022/04/15 05:40:50;;;;;;;29.13;15.40;;;7.20;99.90;;;;;;5071030;28;20723;-61
2022/04/15 05:43:18;;;;;;;26.70;14.83;;;7.20;99.90;;;;;;5071009;28;20218;-61
2022/04/15 05:45:44;;;;;;;25.00;13.93;;;7.30;99.90;;;;;;5071054;28;20230;-61
2022/04/15 05:48:11;;;;;;;28.27;15.03;;;7.30;99.90;;;;;;5070646;28;20730;-59
2022/04/15 05:50:38;;;;;;;29.83;16.43;;;7.40;99.90;;;;;;5070952;28;20210;-60
2022/04/15 05:53:05;;;;;;;32.60;16.47;;;7.50;99.90;;;;;;5070998;28;20212;-61
2022/04/15 05:55:33;;;;;;;32.23;15.90;;;7.40;99.90;;;;;;5068131;28;20224;-62
2022/04/15 05:58:01;;;;;;;36.27;17.57;;;7.40;99.90;;;;;;5074845;28;20227;-62
2022/04/15 06:00:28;;;;;;;36.37;19.43;;;7.40;99.90;;;;;;5075081;28;20213;-62
2022/04/15 06:02:55;;;;;;;37.37;20.03;;;7.40;99.90;;;;;;5075033;28;20654;-62
2022/04/15 06:05:24;;;;;;;35.97;18.03;;;7.40;99.90;;;;;;5074347;28;20716;-63
2022/04/15 06:07:51;;;;;;;28.90;16.10;;;7.50;99.90;;;;;;5074556;28;20241;-69
2022/04/15 06:10:18;;;;;;;30.50;15.97;;;7.40;99.90;;;;;;5074921;28;20570;-62
2022/04/15 06:13:06;;;;;;;31.80;16.67;;;7.40;99.90;;;;;;5075148;28;20212;-62
2022/04/15 06:15:34;;;;;;;31.03;16.60;;;7.40;99.90;;;;;;5074670;28;20228;-62
2022/04/15 06:18:01;;;;;;;29.10;15.13;;;7.50;99.90;;;;;;5074461;28;20279;-61
2022/04/15 06:20:29;;;;;;;26.27;14.40;;;7.40;99.90;;;;;;5074476;28;20208;-62
2022/04/15 06:22:56;;;;;;;26.43;15.60;;;7.30;99.90;;;;;;5074106;28;20219;-61
2022/04/15 06:25:23;;;;;;;27.50;15.73;;;7.20;99.90;;;;;;5074065;28;20724;-62
2022/04/15 06:27:50;;;;;;;28.67;14.73;;;7.20;99.90;;;;;;5074497;28;20235;-62
2022/04/15 06:30:20;;;;;;;31.33;15.07;;;7.10;99.90;;;;;;5074206;28;20211;-62
2022/04/15 06:32:48;;;;;;;23.30;12.97;;;7.10;99.90;;;;;;5074299;28;20719;-62
2022/04/15 06:35:15;;;;;;;36.00;17.17;;;7.10;99.90;;;;;;5073515;28;20700;-63
2022/04/15 06:37:42;;;;;;;26.83;16.30;;;7.20;99.90;;;;;;5074098;28;20231;-63
2022/04/15 06:40:10;;;;;;;26.80;15.00;;;7.20;99.90;;;;;;5074031;28;20213;-61
2022/04/15 06:42:36;;;;;;;24.77;14.17;;;7.30;99.90;;;;;;5073870;28;20204;-64
2022/04/15 06:45:04;;;;;;;22.90;13.83;;;7.30;99.90;;;;;;5074735;28;20253;-63
2022/04/15 06:47:30;;;;;;;23.93;13.70;;;7.40;99.90;;;;;;5073683;28;20270;-61
2022/04/15 06:49:58;;;;;;;26.67;13.37;;;7.50;99.90;;;;;;5074332;28;20289;-62
2022/04/15 06:52:25;;;;;;;21.37;12.10;;;7.50;99.90;;;;;;5074322;28;20208;-61
2022/04/15 06:54:52;;;;;;;20.20;12.27;;;7.50;99.90;;;;;;5073870;28;20227;-62
2022/04/15 06:57:18;;;;;;;17.53;10.23;;;7.60;99.90;;;;;;5073840;28;20225;-62
2022/04/15 06:59:45;;;;;;;21.17;11.43;;;7.70;99.90;;;;;;5074268;28;20207;-63
2022/04/15 07:02:12;;;;;;;17.03;9.87;;;7.80;99.90;;;;;;5074075;28;20253;-62
2022/04/15 07:04:38;;;;;;;17.30;10.13;;;7.80;99.90;;;;;;5073802;28;20211;-63
2022/04/15 07:07:06;;;;;;;17.40;11.00;;;7.70;99.90;;;;;;5072428;28;20674;-62
2022/04/15 07:09:33;;;;;;;19.47;10.57;;;7.70;99.90;;;;;;5074199;28;20216;-62
2022/04/15 07:12:00;;;;;;;16.37;10.07;;;7.70;99.90;;;;;;5074556;28;20686;-61
2022/04/15 07:14:29;;;;;;;14.57;8.77;;;7.70;99.90;;;;;;5074311;28;20208;-62
2022/04/15 07:16:55;;;;;;;15.23;10.00;;;7.80;99.90;;;;;;5072778;28;20207;-63
2022/04/15 07:19:23;;;;;;;14.70;8.70;;;7.70;99.90;;;;;;5073981;28;20209;-63
2022/04/15 07:21:49;;;;;;;8.90;5.67;;;7.70;99.90;;;;;;5073681;28;20242;-61
2022/04/15 07:24:17;;;;;;;15.50;8.83;;;7.60;99.90;;;;;;5073340;28;20211;-62
2022/04/15 07:26:44;;;;;;;13.53;9.00;;;7.60;99.90;;;;;;5073289;28;20235;-63
2022/04/15 07:29:11;;;;;;;13.53;8.97;;;7.70;99.90;;;;;;5073607;28;20231;-61
2022/04/15 07:31:38;;;;;;;15.13;9.13;;;7.80;99.90;;;;;;5073464;28;20579;-61
2022/04/15 07:34:06;;;;;;;12.63;7.53;;;7.80;99.90;;;;;;5073022;28;20208;-62
2022/04/15 07:36:44;;;;;;;13.90;7.70;;;7.80;99.90;;;;;;5072859;28;20778;-58
2022/04/15 07:39:14;;;;;;;10.27;7.13;;;7.70;99.90;;;;;;5073199;28;20228;-62
2022/04/15 07:41:45;;;;;;;10.53;6.90;;;7.80;99.90;;;;;;5073168;28;20223;-62
2022/04/15 07:44:12;;;;;;;12.63;6.17;;;8.10;99.90;;;;;;5072858;28;20204;-62
2022/04/15 07:46:40;;;;;;;5.67;4.37;;;8.30;99.90;;;;;;5072749;28;20201;-62
2022/04/15 07:49:07;;;;;;;10.43;4.87;;;8.40;99.90;;;;;;5073224;28;20225;-61
2022/04/15 07:51:35;;;;;;;6.90;5.27;;;8.40;99.90;;;;;;5072993;28;20626;-61
2022/04/15 07:54:03;;;;;;;7.20;4.90;;;8.50;61.30;;;;;;5072642;28;20205;-61
2022/04/15 07:56:29;;;;;;;7.37;5.33;;;8.60;1.00;;;;;;5072284;28;20221;-61
2022/04/15 07:58:57;;;;;;;7.07;4.77;;;8.60;99.90;;;;;;5073207;28;20233;-62
2022/04/15 08:01:27;;;;;;;6.60;4.13;;;8.70;99.90;;;;;;5073092;28;20205;-61
2022/04/15 08:03:54;;;;;;;7.70;4.67;;;8.90;78.80;;;;;;5072242;28;20579;-62
2022/04/15 08:06:22;;;;;;;8.13;4.30;;;8.90;99.90;;;;;;5072602;28;20292;-61
2022/04/15 08:08:49;;;;;;;5.43;4.27;;;8.90;99.90;;;;;;5072074;28;20225;-61
2022/04/15 08:11:16;;;;;;;7.70;4.20;;;8.70;1.00;;;;;;5072547;28;20212;-62
2022/04/15 08:13:42;;;;;;;7.63;4.80;;;8.80;62.40;;;;;;5072262;28;20204;-61
2022/04/15 08:16:11;;;;;;;7.63;4.70;;;8.90;99.90;;;;;;5072106;28;20232;-62
2022/04/15 08:18:38;;;;;;;5.13;3.90;;;8.90;1.00;;;;;;5072521;28;20227;-62
2022/04/15 08:21:05;;;;;;;6.60;4.13;;;8.90;1.00;;;;;;5071736;28;20270;-61
2022/04/15 08:23:31;;;;;;;7.90;4.50;;;8.90;44.00;;;;;;5071823;28;20205;-62
2022/04/15 08:25:58;;;;;;;5.97;4.67;;;8.90;1.00;;;;;;5071295;28;20237;-62
2022/04/15 08:28:25;;;;;;;8.03;4.67;;;8.90;1.00;;;;;;5072359;28;20224;-62
2022/04/15 08:30:51;;;;;;;6.70;4.20;;;8.90;99.90;;;;;;5064534;28;20205;-59
2022/04/15 08:33:20;;;;;;;5.70;4.13;;;8.80;99.90;;;;;;5072566;28;20262;-59
2022/04/15 08:35:47;;;;;;;5.07;4.13;;;8.80;1.00;;;;;;5071239;28;20231;-58
2022/04/15 08:38:14;;;;;;;5.30;3.70;;;9.00;99.90;;;;;;5068869;28;20339;-61
2022/04/15 08:40:47;;;;;;;6.50;4.40;;;9.10;99.90;;;;;;5052087;28;20201;-61
2022/04/15 08:43:13;;;;;;;6.43;4.70;;;9.20;99.90;;;;;;5052257;28;20698;-61
2022/04/15 08:45:42;;;;;;;9.50;5.33;;;9.10;1.00;;;;;;5052469;28;20202;-64
2022/04/15 08:48:09;;;;;;;9.00;5.73;;;9.20;99.90;;;;;;5051615;28;20229;-65
2022/04/15 08:50:37;;;;;;;6.60;4.20;;;9.30;99.90;;;;;;5052033;28;20205;-65
2022/04/15 08:53:05;;;;;;;5.50;4.40;;;9.20;99.90;;;;;;5051977;28;20232;-64
2022/04/15 08:55:32;;;;;;;6.50;4.27;;;9.10;99.90;;;;;;5052357;28;20228;-58
2022/04/15 08:57:59;;;;;;;6.43;4.43;;;9.20;99.90;;;;;;5051717;28;20225;-65
2022/04/15 09:00:27;;;;;;;8.97;4.50;;;9.20;1.00;;;;;;5051915;28;20205;-65
2022/04/15 09:02:55;;;;;;;6.40;4.40;;;9.00;99.90;;;;;;5052274;28;20263;-62
2022/04/15 09:05:23;;;;;;;5.73;4.83;;;9.20;99.90;;;;;;5051613;28;20263;-58
2022/04/15 09:08:02;;;;;;;7.13;4.70;;;9.20;1.00;;;;;;5051813;28;20225;-63
2022/04/15 09:10:29;;;;;;;7.07;4.67;;;9.20;99.90;;;;;;5052005;28;20621;-62
2022/04/15 09:12:55;;;;;;;6.93;4.80;;;9.10;1.00;;;;;;5053261;28;20337;-63
2022/04/15 09:15:22;;;;;;;7.10;4.73;;;9.00;99.90;;;;;;5052775;28;20221;-64
2022/04/15 09:17:50;;;;;;;9.50;5.57;;;8.90;99.90;;;;;;5052361;28;20230;-64
2022/04/15 09:20:18;;;;;;;8.93;5.23;;;8.90;99.90;;;;;;5052201;28;20209;-61
2022/04/15 09:22:44;;;;;;;7.93;4.97;;;8.80;99.90;;;;;;5051403;28;20213;-59
2022/04/15 09:25:13;;;;;;;8.83;5.77;;;8.80;99.90;;;;;;5051510;28;20210;-56
2022/04/15 09:27:41;;;;;;;11.77;5.80;;;8.80;99.90;;;;;;5051068;28;20772;-63
2022/04/15 09:30:08;;;;;;;12.83;6.77;;;8.80;1.00;;;;;;5050883;28;20750;-64
2022/04/15 09:32:35;;;;;;;7.87;5.17;;;8.80;99.90;;;;;;5051955;28;20259;-63
2022/04/15 09:35:04;;;;;;;9.13;5.17;;;9.00;99.90;;;;;;5067546;28;20208;-64
2022/04/15 09:37:32;;;;;;;9.47;5.73;;;9.10;99.90;;;;;;5071402;28;20224;-57
2022/04/15 09:40:08;;;;;;;8.10;5.27;;;9.00;99.90;;;;;;5071384;28;20290;-61
2022/04/15 09:42:37;;;;;;;9.97;5.80;;;9.00;99.90;;;;;;5071325;28;20260;-62
2022/04/15 09:45:14;;;;;;;9.93;5.53;;;9.10;1.00;;;;;;5070734;28;20296;-61
2022/04/15 09:47:42;;;;;;;9.50;6.00;;;9.10;99.90;;;;;;5070384;28;20725;-62
2022/04/15 09:50:20;;;;;;;9.00;6.40;;;9.20;1.00;;;;;;5070812;28;20208;-63
2022/04/15 09:52:47;;;;;;;9.70;5.80;;;9.20;99.90;;;;;;5070621;28;20208;-63
2022/04/15 09:55:18;;;;;;;10.27;7.30;;;9.00;86.30;;;;;;5070964;28;20216;-63
2022/04/15 09:57:47;;;;;;;10.13;6.87;;;9.00;99.90;;;;;;5071019;28;20228;-60
2022/04/15 10:00:15;;;;;;;12.17;7.30;;;9.00;99.90;;;;;;5071585;28;20204;-60
2022/04/15 10:02:43;;;;;;;12.10;7.63;;;8.90;1.00;;;;;;5070995;28;20204;-60
2022/04/15 10:05:12;;;;;;;11.50;8.10;;;8.80;8.80;;;;;;5071391;28;20671;-62
2022/04/15 10:07:40;;;;;;;12.60;7.70;;;8.70;99.90;;;;;;5070650;28;20241;-60
2022/04/15 10:10:09;;;;;;;14.73;8.30;;;8.60;99.90;;;;;;5070866;28;20668;-60
2022/04/15 10:12:39;;;;;;;11.30;7.53;;;8.60;1.00;;;;;;5071269;28;20205;-61
2022/04/15 10:15:10;;;;;;;12.33;8.03;;;8.60;1.00;;;;;;5070748;28;20216;-63
2022/04/15 10:17:39;;;;;;;8.20;6.67;;;8.80;1.00;;;;;;5070893;28;20274;-62
2022/04/15 10:20:07;;;;;;;11.03;6.43;;;8.80;9.00;;;;;;5071407;28;20208;-62
2022/04/15 10:22:37;;;;;;;8.80;6.67;;;8.80;27.00;;;;;;5070758;28;20274;-61
2022/04/15 10:25:06;;;;;;;23.87;13.77;;;8.70;1.00;;;;;;5070204;28;20219;-62
2022/04/15 10:27:32;;;;;;;10.40;7.77;;;8.80;99.90;;;;;;5070278;28;20263;-64
2022/04/15 10:30:05;;;;;;;23.40;13.83;;;9.10;11.00;;;;;;5070815;28;20205;-64
2022/04/15 10:32:48;;;;;;;31.90;20.37;;;9.40;99.90;;;;;;5070509;28;20209;-64
2022/04/15 10:35:22;;;;;;;8.80;6.20;;;9.60;99.90;;;;;;5070460;28;20336;-60
2022/04/15 10:37:55;;;;;;;9.07;6.43;;;9.70;99.90;;;;;;5070039;28;20328;-58
2022/04/15 10:40:23;;;;;;;10.83;5.73;;;9.40;99.90;;;;;;5071814;28;20321;-64
2022/04/15 10:42:50;;;;;;;12.53;6.57;;;9.40;1.00;;;;;;5073211;28;20668;-63
2022/04/15 10:45:28;;;;;;;6.70;5.40;;;9.40;99.90;;;;;;5073856;28;20205;-65
2022/04/15 10:48:00;;;;;;;8.67;5.83;;;9.50;22.50;;;;;;5070766;28;20226;-65
2022/04/15 10:50:29;;;;;;;11.33;5.87;;;9.60;1.00;;;;;;5074354;28;20203;-63
2022/04/15 10:53:31;;;;;;;7.13;5.73;;;9.60;99.90;;;;;;5074412;28;20665;-63
2022/04/15 10:56:08;;;;;;;8.27;5.60;;;9.90;21.50;;;;;;5056857;28;20271;-63
2022/04/15 11:01:52;;;;;;;8.50;6.03;;;9.70;99.90;;;;;;5053892;28;20302;-62
2022/04/15 11:04:24;;;;;;;10.10;5.97;;;9.60;1.00;;;;;;5053506;28;20241;-59
2022/04/15 11:06:51;;;;;;;8.43;6.00;;;9.70;1.00;;;;;;5053329;28;20252;-60
2022/04/15 11:09:23;;;;;;;9.47;6.03;;;9.60;1.00;;;;;;5053597;28;20293;-61
2022/04/15 11:11:51;;;;;;;11.23;6.50;;;9.60;99.90;;;;;;5053722;28;20298;-61
2022/04/15 11:14:18;;;;;;;8.53;5.47;;;9.70;99.90;;;;;;5053133;28;20618;-61
2022/04/15 11:16:48;;;;;;;8.20;5.50;;;9.80;99.90;;;;;;5052908;28;20230;-60
2022/04/15 11:19:18;;;;;;;7.70;5.53;;;10.00;1.00;;;;;;5053138;28;20214;-61
2022/04/15 11:21:50;;;;;;;7.33;5.37;;;10.10;1.00;;;;;;5053365;28;20741;-60
2022/04/15 11:24:22;;;;;;;6.90;5.33;;;10.20;1.00;;;;;;5052315;28;20301;-64
2022/04/15 11:26:48;;;;;;;8.33;5.53;;;10.20;1.00;;;;;;5052941;28;20291;-62
2022/04/15 11:29:15;;;;;;;8.60;6.07;;;10.30;1.00;;;;;;5052936;28;20202;-62
2022/04/15 11:31:45;;;;;;;10.20;6.30;;;10.30;1.00;;;;;;5053092;28;20676;-62
2022/04/15 11:34:15;;;;;;;11.03;7.57;;;10.00;1.00;;;;;;5053171;28;20703;-60
2022/04/15 11:36:43;;;;;;;10.67;7.03;;;10.10;57.60;;;;;;5052857;28;20237;-59
2022/04/15 11:39:13;;;;;;;8.93;6.27;;;10.20;93.40;;;;;;5052737;28;20321;-59
2022/04/15 11:41:44;;;;;;;10.97;6.60;;;9.90;1.00;;;;;;5053058;28;20211;-59
2022/04/15 11:44:12;;;;;;;11.77;6.57;;;9.90;99.90;;;;;;5052717;28;20674;-58
2022/04/15 11:46:40;;;;;;;11.07;7.43;;;10.10;32.10;;;;;;5052392;28;20232;-60
2022/04/15 11:49:13;;;;;;;12.43;7.83;;;10.20;1.00;;;;;;5052929;28;20235;-60
2022/04/15 11:51:43;;;;;;;15.23;8.83;;;10.40;1.00;;;;;;5052686;28;20212;-60
2022/04/15 11:54:09;;;;;;;16.47;9.13;;;10.60;99.90;;;;;;5052052;28;20265;-60
2022/04/15 11:56:38;;;;;;;20.23;10.47;;;10.70;99.90;;;;;;5052621;28;20233;-59
2022/04/15 11:59:08;;;;;;;14.90;9.27;;;10.60;99.90;;;;;;5052963;28;20232;-59
2022/04/15 12:01:35;;;;;;;20.03;11.47;;;10.70;99.90;;;;;;5052626;28;20675;-59
2022/04/15 12:04:02;;;;;;;21.23;13.20;;;10.20;99.90;;;;;;5052282;28;20632;-60
2022/04/15 12:06:30;;;;;;;22.03;12.40;;;10.30;99.90;;;;;;5052190;28;20203;-60
2022/04/15 12:08:57;;;;;;;22.90;12.20;;;10.30;99.90;;;;;;5052989;28;20314;-61
2022/04/15 12:11:25;;;;;;;25.50;15.13;;;10.20;99.90;;;;;;5052932;28;20238;-61
2022/04/15 12:14:01;;;;;;;28.23;16.77;;;10.30;99.90;;;;;;5052629;28;20233;-58
2022/04/15 12:16:30;;;;;;;28.17;16.23;;;10.50;99.90;;;;;;5052824;28;20619;-60
2022/04/15 12:18:59;;;;;;;23.47;13.90;;;10.50;99.90;;;;;;5052134;28;20328;-60
2022/04/15 12:21:27;;;;;;;28.63;17.67;;;10.50;99.90;;;;;;5052649;28;20597;-59
2022/04/15 12:24:07;;;;;;;19.30;12.17;;;10.60;99.90;;;;;;5052267;28;20694;-62
2022/04/15 12:26:45;;;;;;;13.77;9.30;;;10.70;99.90;;;;;;5052032;28;20206;-59
2022/04/15 12:32:15;;;;;;;14.47;9.87;;;10.90;25.40;;;;;;5052119;28;20870;-61
2022/04/15 12:34:42;;;;;;;16.90;9.97;;;10.80;1.00;;;;;;5052103;28;20201;-59
2022/04/15 12:37:35;;;;;;;16.20;10.00;;;10.90;99.90;;;;;;5052012;28;20279;-61
2022/04/15 12:40:05;;;;;;;14.50;9.00;;;10.90;4.90;;;;;;5052569;28;20197;-62
2022/04/15 12:42:34;;;;;;;10.90;8.00;;;10.80;46.90;;;;;;5051884;28;20211;-62
2022/04/15 12:45:06;;;;;;;11.07;7.23;;;10.70;39.90;;;;;;5051981;28;20744;-62
2022/04/15 12:47:32;;;;;;;13.40;9.10;;;10.50;1.60;;;;;;5051327;28;20277;-61
2022/04/15 12:50:23;;;;;;;15.00;8.23;;;10.50;59.10;;;;;;5051854;28;20212;-62
2022/04/15 12:52:51;;;;;;;10.77;7.37;;;10.70;99.90;;;;;;5051948;28;20213;-64
2022/04/15 12:55:26;;;;;;;11.03;6.97;;;10.80;37.20;;;;;;5051632;28;20212;-60
2022/04/15 12:57:53;;;;;;;10.77;7.73;;;10.90;1.00;;;;;;5052064;28;20263;-60